sensor_id;sensor_type;location;lat;lon;timestamp;P1;durP1;ratioP1;P2;durP2;ratioP2
3036;SDS011;1528;52.550;13.408;2022-08-02T00:01:34;4.07;;;3.40;;
3036;SDS011;1528;52.550;13.408;2022-08-02T00:04:22;4.13;;;3.73;;
3036;SDS011;1528;52.550;13.408;2022-08-02T00:07:10;4.97;;;3.90;;
3036;SDS011;1528;52.550;13.408;2022-08-02T00:09:59;5.20;;;4.00;;
3036;SDS011;1528;52.550;13.408;2022-08-02T00:12:48;3.40;;;3.10;;
3036;SDS011;1528;52.550;13.408;2022-08-02T00:15:38;4.07;;;3.77;;
3036;SDS011;1528;52.550;13.408;2022-08-02T00:18:26;4.50;;;4.10;;
3036;SDS011;1528;52.550;13.408;2022-08-02T00:21:17;5.30;;;4.63;;
3036;SDS011;1528;52.550;13.408;2022-08-02T00:24:06;5.37;;;4.97;;
3036;SDS011;1528;52.550;13.408;2022-08-02T00:26:54;5.20;;;4.70;;
3036;SDS011;1528;52.550;13.408;2022-08-02T00:29:43;3.67;;;3.37;;
3036;SDS011;1528;52.550;13.408;2022-08-02T00:32:33;3.70;;;3.40;;
3036;SDS011;1528;52.550;13.408;2022-08-02T00:35:21;4.57;;;3.77;;
3036;SDS011;1528;52.550;13.408;2022-08-02T00:38:09;4.57;;;3.93;;
3036;SDS011;1528;52.550;13.408;2022-08-02T00:40:58;5.30;;;3.63;;
3036;SDS011;1528;52.550;13.408;2022-08-02T00:43:48;3.70;;;3.10;;
3036;SDS011;1528;52.550;13.408;2022-08-02T00:46:38;3.97;;;3.57;;
3036;SDS011;1528;52.550;13.408;2022-08-02T00:49:27;3.83;;;3.40;;
3036;SDS011;1528;52.550;13.408;2022-08-02T00:52:15;5.10;;;4.60;;
3036;SDS011;1528;52.550;13.408;2022-08-02T00:55:08;4.03;;;3.73;;
3036;SDS011;1528;52.550;13.408;2022-08-02T00:57:56;4.43;;;3.60;;
3036;SDS011;1528;52.550;13.408;2022-08-02T01:00:44;5.43;;;4.43;;
3036;SDS011;1528;52.550;13.408;2022-08-02T01:03:35;4.73;;;4.17;;
3036;SDS011;1528;52.550;13.408;2022-08-02T01:06:25;5.70;;;3.97;;
3036;SDS011;1528;52.550;13.408;2022-08-02T01:09:16;5.63;;;3.53;;
3036;SDS011;1528;52.550;13.408;2022-08-02T01:12:04;4.63;;;3.60;;
3036;SDS011;1528;52.550;13.408;2022-08-02T01:14:54;4.50;;;3.53;;
3036;SDS011;1528;52.550;13.408;2022-08-02T01:17:44;3.97;;;3.33;;
3036;SDS011;1528;52.550;13.408;2022-08-02T01:20:48;3.77;;;3.37;;
3036;SDS011;1528;52.550;13.408;2022-08-02T01:24:07;3.97;;;3.60;;
3036;SDS011;1528;52.550;13.408;2022-08-02T01:27:14;3.77;;;3.47;;
3036;SDS011;1528;52.550;13.408;2022-08-02T01:30:16;4.10;;;3.70;;
3036;SDS011;1528;52.550;13.408;2022-08-02T01:33:09;3.90;;;3.60;;
3036;SDS011;1528;52.550;13.408;2022-08-02T01:36:02;5.50;;;4.30;;
3036;SDS011;1528;52.550;13.408;2022-08-02T01:38:58;7.50;;;3.53;;
3036;SDS011;1528;52.550;13.408;2022-08-02T01:41:54;4.17;;;3.30;;
3036;SDS011;1528;52.550;13.408;2022-08-02T01:44:44;4.83;;;3.83;;
3036;SDS011;1528;52.550;13.408;2022-08-02T01:47:37;5.23;;;3.67;;
3036;SDS011;1528;52.550;13.408;2022-08-02T01:50:28;4.07;;;3.77;;
3036;SDS011;1528;52.550;13.408;2022-08-02T01:53:19;5.53;;;3.10;;
3036;SDS011;1528;52.550;13.408;2022-08-02T01:56:08;8.30;;;3.70;;
3036;SDS011;1528;52.550;13.408;2022-08-02T01:58:58;4.67;;;3.37;;
3036;SDS011;1528;52.550;13.408;2022-08-02T02:01:48;5.70;;;3.63;;
3036;SDS011;1528;52.550;13.408;2022-08-02T02:04:45;6.60;;;3.80;;
3036;SDS011;1528;52.550;13.408;2022-08-02T02:07:37;5.07;;;3.63;;
3036;SDS011;1528;52.550;13.408;2022-08-02T02:10:26;5.53;;;3.70;;
3036;SDS011;1528;52.550;13.408;2022-08-02T02:13:18;8.93;;;3.83;;
3036;SDS011;1528;52.550;13.408;2022-08-02T02:16:07;7.43;;;4.03;;
3036;SDS011;1528;52.550;13.408;2022-08-02T02:18:58;3.87;;;3.53;;
3036;SDS011;1528;52.550;13.408;2022-08-02T02:21:50;5.73;;;3.60;;
3036;SDS011;1528;52.550;13.408;2022-08-02T02:24:38;4.20;;;3.80;;
3036;SDS011;1528;52.550;13.408;2022-08-02T02:27:29;4.67;;;3.77;;
3036;SDS011;1528;52.550;13.408;2022-08-02T02:30:18;5.13;;;3.60;;
3036;SDS011;1528;52.550;13.408;2022-08-02T02:33:11;5.77;;;3.63;;
3036;SDS011;1528;52.550;13.408;2022-08-02T02:36:03;5.73;;;3.33;;
3036;SDS011;1528;52.550;13.408;2022-08-02T02:38:55;4.50;;;3.40;;
3036;SDS011;1528;52.550;13.408;2022-08-02T02:41:50;6.53;;;3.67;;
3036;SDS011;1528;52.550;13.408;2022-08-02T02:44:38;6.40;;;4.13;;
3036;SDS011;1528;52.550;13.408;2022-08-02T02:47:28;7.97;;;4.47;;
3036;SDS011;1528;52.550;13.408;2022-08-02T02:50:17;3.97;;;3.67;;
3036;SDS011;1528;52.550;13.408;2022-08-02T02:53:07;4.07;;;3.60;;
3036;SDS011;1528;52.550;13.408;2022-08-02T02:55:58;3.40;;;3.10;;
3036;SDS011;1528;52.550;13.408;2022-08-02T02:58:47;10.00;;;4.20;;
3036;SDS011;1528;52.550;13.408;2022-08-02T03:01:37;4.53;;;3.30;;
3036;SDS011;1528;52.550;13.408;2022-08-02T03:04:31;7.20;;;4.27;;
3036;SDS011;1528;52.550;13.408;2022-08-02T03:07:20;8.17;;;4.50;;
3036;SDS011;1528;52.550;13.408;2022-08-02T03:10:09;6.23;;;4.23;;
3036;SDS011;1528;52.550;13.408;2022-08-02T03:13:02;8.53;;;4.57;;
3036;SDS011;1528;52.550;13.408;2022-08-02T03:15:51;5.13;;;3.90;;
3036;SDS011;1528;52.550;13.408;2022-08-02T03:18:39;5.20;;;4.20;;
3036;SDS011;1528;52.550;13.408;2022-08-02T03:21:29;4.23;;;3.83;;
3036;SDS011;1528;52.550;13.408;2022-08-02T03:24:20;6.37;;;4.70;;
3036;SDS011;1528;52.550;13.408;2022-08-02T03:27:08;4.87;;;4.37;;
3036;SDS011;1528;52.550;13.408;2022-08-02T03:29:58;5.13;;;3.83;;
3036;SDS011;1528;52.550;13.408;2022-08-02T03:32:50;6.63;;;4.30;;
3036;SDS011;1528;52.550;13.408;2022-08-02T03:35:39;6.03;;;4.03;;
3036;SDS011;1528;52.550;13.408;2022-08-02T03:38:29;5.57;;;4.40;;
3036;SDS011;1528;52.550;13.408;2022-08-02T03:41:18;6.40;;;4.23;;
3036;SDS011;1528;52.550;13.408;2022-08-02T03:44:08;4.63;;;4.23;;
3036;SDS011;1528;52.550;13.408;2022-08-02T03:47:00;7.73;;;4.40;;
3036;SDS011;1528;52.550;13.408;2022-08-02T03:49:49;4.90;;;4.40;;
3036;SDS011;1528;52.550;13.408;2022-08-02T03:52:39;4.60;;;4.20;;
3036;SDS011;1528;52.550;13.408;2022-08-02T03:55:30;5.10;;;4.60;;
3036;SDS011;1528;52.550;13.408;2022-08-02T03:58:22;5.03;;;4.53;;
3036;SDS011;1528;52.550;13.408;2022-08-02T04:01:12;6.00;;;4.70;;
3036;SDS011;1528;52.550;13.408;2022-08-02T04:04:02;7.00;;;4.53;;
3036;SDS011;1528;52.550;13.408;2022-08-02T04:06:51;6.17;;;4.37;;
3036;SDS011;1528;52.550;13.408;2022-08-02T04:09:41;5.17;;;4.00;;
3036;SDS011;1528;52.550;13.408;2022-08-02T04:12:29;6.73;;;4.20;;
3036;SDS011;1528;52.550;13.408;2022-08-02T04:15:18;10.70;;;4.30;;
3036;SDS011;1528;52.550;13.408;2022-08-02T04:18:10;7.30;;;4.03;;
3036;SDS011;1528;52.550;13.408;2022-08-02T04:21:00;8.57;;;4.60;;
3036;SDS011;1528;52.550;13.408;2022-08-02T04:23:50;6.33;;;3.90;;
3036;SDS011;1528;52.550;13.408;2022-08-02T04:26:40;6.63;;;4.40;;
3036;SDS011;1528;52.550;13.408;2022-08-02T04:29:34;4.67;;;4.27;;
3036;SDS011;1528;52.550;13.408;2022-08-02T04:32:23;6.27;;;4.90;;
3036;SDS011;1528;52.550;13.408;2022-08-02T04:35:12;5.50;;;4.47;;
3036;SDS011;1528;52.550;13.408;2022-08-02T04:38:04;4.63;;;3.93;;
3036;SDS011;1528;52.550;13.408;2022-08-02T04:40:53;4.40;;;3.67;;
3036;SDS011;1528;52.550;13.408;2022-08-02T04:43:42;13.70;;;4.90;;
3036;SDS011;1528;52.550;13.408;2022-08-02T04:46:31;7.67;;;5.43;;
3036;SDS011;1528;52.550;13.408;2022-08-02T04:49:21;7.70;;;4.60;;
3036;SDS011;1528;52.550;13.408;2022-08-02T04:52:10;6.03;;;4.80;;
3036;SDS011;1528;52.550;13.408;2022-08-02T04:55:00;6.37;;;5.23;;
3036;SDS011;1528;52.550;13.408;2022-08-02T04:57:48;6.23;;;4.20;;
3036;SDS011;1528;52.550;13.408;2022-08-02T05:00:42;6.77;;;6.10;;
3036;SDS011;1528;52.550;13.408;2022-08-02T05:03:31;9.40;;;6.17;;
3036;SDS011;1528;52.550;13.408;2022-08-02T05:06:21;7.23;;;6.60;;
3036;SDS011;1528;52.550;13.408;2022-08-02T05:09:09;8.83;;;7.33;;
3036;SDS011;1528;52.550;13.408;2022-08-02T05:12:02;7.83;;;7.07;;
3036;SDS011;1528;52.550;13.408;2022-08-02T05:14:51;11.13;;;8.00;;
3036;SDS011;1528;52.550;13.408;2022-08-02T05:17:39;11.57;;;7.83;;
3036;SDS011;1528;52.550;13.408;2022-08-02T05:20:30;10.30;;;8.00;;
3036;SDS011;1528;52.550;13.408;2022-08-02T05:23:18;10.30;;;7.90;;
3036;SDS011;1528;52.550;13.408;2022-08-02T05:26:07;10.07;;;8.30;;
3036;SDS011;1528;52.550;13.408;2022-08-02T05:28:57;15.20;;;8.00;;
3036;SDS011;1528;52.550;13.408;2022-08-02T05:31:47;10.80;;;6.80;;
3036;SDS011;1528;52.550;13.408;2022-08-02T05:34:35;10.80;;;8.37;;
3036;SDS011;1528;52.550;13.408;2022-08-02T05:37:24;8.00;;;7.20;;
3036;SDS011;1528;52.550;13.408;2022-08-02T05:40:12;14.53;;;8.70;;
3036;SDS011;1528;52.550;13.408;2022-08-02T05:43:01;15.63;;;6.90;;
3036;SDS011;1528;52.550;13.408;2022-08-02T05:45:58;9.93;;;5.30;;
3036;SDS011;1528;52.550;13.408;2022-08-02T05:48:47;10.83;;;5.60;;
3036;SDS011;1528;52.550;13.408;2022-08-02T05:51:36;6.80;;;4.90;;
3036;SDS011;1528;52.550;13.408;2022-08-02T05:54:30;10.03;;;7.37;;
3036;SDS011;1528;52.550;13.408;2022-08-02T05:57:29;11.57;;;8.10;;
3036;SDS011;1528;52.550;13.408;2022-08-02T06:00:23;11.50;;;6.83;;
3036;SDS011;1528;52.550;13.408;2022-08-02T06:03:19;9.70;;;6.83;;
3036;SDS011;1528;52.550;13.408;2022-08-02T06:06:10;9.80;;;6.43;;
3036;SDS011;1528;52.550;13.408;2022-08-02T06:09:02;6.87;;;6.00;;
3036;SDS011;1528;52.550;13.408;2022-08-02T06:11:56;10.23;;;6.50;;
3036;SDS011;1528;52.550;13.408;2022-08-02T06:14:45;8.53;;;5.80;;
3036;SDS011;1528;52.550;13.408;2022-08-02T06:17:34;11.03;;;6.27;;
3036;SDS011;1528;52.550;13.408;2022-08-02T06:20:25;8.13;;;6.40;;
3036;SDS011;1528;52.550;13.408;2022-08-02T06:23:18;8.10;;;6.13;;
3036;SDS011;1528;52.550;13.408;2022-08-02T06:26:09;10.40;;;6.20;;
3036;SDS011;1528;52.550;13.408;2022-08-02T06:28:59;8.53;;;5.50;;
3036;SDS011;1528;52.550;13.408;2022-08-02T06:31:48;7.83;;;5.97;;
3036;SDS011;1528;52.550;13.408;2022-08-02T06:34:38;8.83;;;5.40;;
3036;SDS011;1528;52.550;13.408;2022-08-02T06:37:30;5.60;;;4.70;;
3036;SDS011;1528;52.550;13.408;2022-08-02T06:40:26;7.83;;;5.50;;
3036;SDS011;1528;52.550;13.408;2022-08-02T06:43:18;7.00;;;4.80;;
3036;SDS011;1528;52.550;13.408;2022-08-02T06:46:13;5.50;;;4.50;;
3036;SDS011;1528;52.550;13.408;2022-08-02T06:49:04;8.50;;;5.27;;
3036;SDS011;1528;52.550;13.408;2022-08-02T06:51:53;11.33;;;4.77;;
3036;SDS011;1528;52.550;13.408;2022-08-02T06:54:43;7.00;;;3.73;;
3036;SDS011;1528;52.550;13.408;2022-08-02T06:57:31;5.00;;;3.40;;
3036;SDS011;1528;52.550;13.408;2022-08-02T07:00:19;4.20;;;3.80;;
3036;SDS011;1528;52.550;13.408;2022-08-02T07:03:08;5.27;;;4.00;;
3036;SDS011;1528;52.550;13.408;2022-08-02T07:05:57;7.43;;;4.30;;
3036;SDS011;1528;52.550;13.408;2022-08-02T07:08:46;5.83;;;4.37;;
3036;SDS011;1528;52.550;13.408;2022-08-02T07:11:37;10.63;;;4.60;;
3036;SDS011;1528;52.550;13.408;2022-08-02T07:14:26;6.20;;;4.00;;
3036;SDS011;1528;52.550;13.408;2022-08-02T07:17:15;8.27;;;4.53;;
3036;SDS011;1528;52.550;13.408;2022-08-02T07:20:03;8.40;;;4.30;;
3036;SDS011;1528;52.550;13.408;2022-08-02T07:22:53;5.00;;;4.07;;
3036;SDS011;1528;52.550;13.408;2022-08-02T07:25:42;8.37;;;3.97;;
3036;SDS011;1528;52.550;13.408;2022-08-02T07:28:33;10.60;;;4.27;;
3036;SDS011;1528;52.550;13.408;2022-08-02T07:31:22;5.27;;;4.10;;
3036;SDS011;1528;52.550;13.408;2022-08-02T07:34:10;5.47;;;4.10;;
3036;SDS011;1528;52.550;13.408;2022-08-02T07:36:59;7.17;;;3.50;;
3036;SDS011;1528;52.550;13.408;2022-08-02T07:39:48;8.27;;;3.60;;
3036;SDS011;1528;52.550;13.408;2022-08-02T07:42:37;8.60;;;3.80;;
3036;SDS011;1528;52.550;13.408;2022-08-02T07:45:28;7.90;;;3.90;;
3036;SDS011;1528;52.550;13.408;2022-08-02T07:48:16;5.67;;;3.80;;
3036;SDS011;1528;52.550;13.408;2022-08-02T07:51:05;4.53;;;3.60;;
3036;SDS011;1528;52.550;13.408;2022-08-02T07:53:53;6.03;;;3.30;;
3036;SDS011;1528;52.550;13.408;2022-08-02T07:56:42;8.23;;;4.00;;
3036;SDS011;1528;52.550;13.408;2022-08-02T07:59:31;4.70;;;3.23;;
3036;SDS011;1528;52.550;13.408;2022-08-02T08:02:22;3.93;;;2.80;;
3036;SDS011;1528;52.550;13.408;2022-08-02T08:05:10;5.53;;;3.47;;
3036;SDS011;1528;52.550;13.408;2022-08-02T08:07:59;5.70;;;3.17;;
3036;SDS011;1528;52.550;13.408;2022-08-02T08:10:47;11.03;;;4.07;;
3036;SDS011;1528;52.550;13.408;2022-08-02T08:13:38;3.73;;;3.00;;
3036;SDS011;1528;52.550;13.408;2022-08-02T08:16:27;6.47;;;4.23;;
3036;SDS011;1528;52.550;13.408;2022-08-02T08:19:17;8.40;;;3.87;;
3036;SDS011;1528;52.550;13.408;2022-08-02T08:22:05;5.20;;;4.00;;
3036;SDS011;1528;52.550;13.408;2022-08-02T08:24:54;4.63;;;3.53;;
3036;SDS011;1528;52.550;13.408;2022-08-02T08:27:46;6.67;;;3.60;;
3036;SDS011;1528;52.550;13.408;2022-08-02T08:30:36;7.63;;;3.43;;
3036;SDS011;1528;52.550;13.408;2022-08-02T08:33:26;5.73;;;3.50;;
3036;SDS011;1528;52.550;13.408;2022-08-02T08:36:16;9.23;;;3.80;;
3036;SDS011;1528;52.550;13.408;2022-08-02T08:39:04;5.33;;;3.40;;
3036;SDS011;1528;52.550;13.408;2022-08-02T08:41:53;7.60;;;4.30;;
3036;SDS011;1528;52.550;13.408;2022-08-02T08:44:42;8.23;;;4.47;;
3036;SDS011;1528;52.550;13.408;2022-08-02T08:47:32;6.13;;;3.70;;
3036;SDS011;1528;52.550;13.408;2022-08-02T08:50:23;6.10;;;4.20;;
3036;SDS011;1528;52.550;13.408;2022-08-02T08:53:14;4.40;;;3.00;;
3036;SDS011;1528;52.550;13.408;2022-08-02T08:56:04;4.27;;;3.40;;
3036;SDS011;1528;52.550;13.408;2022-08-02T08:58:53;4.13;;;3.00;;
3036;SDS011;1528;52.550;13.408;2022-08-02T09:01:43;5.17;;;3.57;;
3036;SDS011;1528;52.550;13.408;2022-08-02T09:04:32;6.10;;;3.40;;
3036;SDS011;1528;52.550;13.408;2022-08-02T09:07:22;4.23;;;3.57;;
3036;SDS011;1528;52.550;13.408;2022-08-02T09:13:28;8.07;;;4.53;;
3036;SDS011;1528;52.550;13.408;2022-08-02T09:16:26;4.27;;;3.50;;
3036;SDS011;1528;52.550;13.408;2022-08-02T09:19:16;8.03;;;4.50;;
3036;SDS011;1528;52.550;13.408;2022-08-02T09:22:06;8.23;;;3.87;;
3036;SDS011;1528;52.550;13.408;2022-08-02T09:24:58;10.53;;;3.57;;
3036;SDS011;1528;52.550;13.408;2022-08-02T09:27:48;6.10;;;3.37;;
3036;SDS011;1528;52.550;13.408;2022-08-02T09:30:41;4.63;;;3.50;;
3036;SDS011;1528;52.550;13.408;2022-08-02T09:33:29;4.87;;;3.30;;
3036;SDS011;1528;52.550;13.408;2022-08-02T09:36:20;4.50;;;3.30;;
3036;SDS011;1528;52.550;13.408;2022-08-02T09:39:09;3.60;;;2.80;;
3036;SDS011;1528;52.550;13.408;2022-08-02T09:42:06;3.50;;;3.17;;
3036;SDS011;1528;52.550;13.408;2022-08-02T09:44:58;3.00;;;2.67;;
3036;SDS011;1528;52.550;13.408;2022-08-02T09:47:47;6.07;;;2.80;;
3036;SDS011;1528;52.550;13.408;2022-08-02T09:50:35;4.97;;;2.80;;
3036;SDS011;1528;52.550;13.408;2022-08-02T09:53:27;7.73;;;3.23;;
3036;SDS011;1528;52.550;13.408;2022-08-02T09:56:19;4.20;;;2.83;;
3036;SDS011;1528;52.550;13.408;2022-08-02T09:59:08;5.50;;;3.13;;
3036;SDS011;1528;52.550;13.408;2022-08-02T10:02:00;3.40;;;2.50;;
3036;SDS011;1528;52.550;13.408;2022-08-02T10:04:56;6.17;;;3.20;;
3036;SDS011;1528;52.550;13.408;2022-08-02T10:07:44;5.67;;;3.27;;
3036;SDS011;1528;52.550;13.408;2022-08-02T10:10:33;4.50;;;3.00;;
3036;SDS011;1528;52.550;13.408;2022-08-02T10:13:20;3.97;;;3.47;;
3036;SDS011;1528;52.550;13.408;2022-08-02T10:16:08;4.83;;;3.13;;
3036;SDS011;1528;52.550;13.408;2022-08-02T10:19:02;3.33;;;2.73;;
3036;SDS011;1528;52.550;13.408;2022-08-02T10:21:51;4.00;;;3.20;;
3036;SDS011;1528;52.550;13.408;2022-08-02T10:24:48;4.50;;;2.93;;
3036;SDS011;1528;52.550;13.408;2022-08-02T10:27:38;4.73;;;2.90;;
3036;SDS011;1528;52.550;13.408;2022-08-02T10:30:26;4.03;;;3.20;;
3036;SDS011;1528;52.550;13.408;2022-08-02T10:33:18;7.63;;;3.43;;
3036;SDS011;1528;52.550;13.408;2022-08-02T10:36:11;6.27;;;2.97;;
3036;SDS011;1528;52.550;13.408;2022-08-02T10:39:00;6.47;;;2.57;;
3036;SDS011;1528;52.550;13.408;2022-08-02T10:41:49;3.33;;;2.40;;
3036;SDS011;1528;52.550;13.408;2022-08-02T10:44:38;3.40;;;2.73;;
3036;SDS011;1528;52.550;13.408;2022-08-02T10:47:26;6.70;;;3.03;;
3036;SDS011;1528;52.550;13.408;2022-08-02T10:50:15;4.80;;;3.17;;
3036;SDS011;1528;52.550;13.408;2022-08-02T10:56:16;3.27;;;2.97;;
3036;SDS011;1528;52.550;13.408;2022-08-02T10:59:31;3.30;;;2.83;;
3036;SDS011;1528;52.550;13.408;2022-08-02T11:02:37;3.90;;;3.10;;
3036;SDS011;1528;52.550;13.408;2022-08-02T11:05:27;5.30;;;4.77;;
3036;SDS011;1528;52.550;13.408;2022-08-02T11:08:18;4.53;;;3.57;;
3036;SDS011;1528;52.550;13.408;2022-08-02T11:11:17;5.27;;;3.20;;
3036;SDS011;1528;52.550;13.408;2022-08-02T11:14:06;6.10;;;3.50;;
3036;SDS011;1528;52.550;13.408;2022-08-02T11:17:06;4.27;;;3.60;;
3036;SDS011;1528;52.550;13.408;2022-08-02T11:20:16;3.90;;;3.50;;
3036;SDS011;1528;52.550;13.408;2022-08-02T11:26:43;5.20;;;3.50;;
3036;SDS011;1528;52.550;13.408;2022-08-02T11:29:36;3.77;;;3.30;;
3036;SDS011;1528;52.550;13.408;2022-08-02T11:32:27;7.83;;;3.40;;
3036;SDS011;1528;52.550;13.408;2022-08-02T11:35:16;4.30;;;3.90;;
3036;SDS011;1528;52.550;13.408;2022-08-02T11:38:14;3.33;;;2.93;;
3036;SDS011;1528;52.550;13.408;2022-08-02T11:41:03;5.50;;;3.13;;
3036;SDS011;1528;52.550;13.408;2022-08-02T11:43:53;8.83;;;4.17;;
3036;SDS011;1528;52.550;13.408;2022-08-02T11:46:39;5.97;;;3.10;;
3036;SDS011;1528;52.550;13.408;2022-08-02T11:49:28;4.03;;;3.30;;
3036;SDS011;1528;52.550;13.408;2022-08-02T11:52:13;5.27;;;3.00;;
3036;SDS011;1528;52.550;13.408;2022-08-02T11:54:59;9.80;;;3.37;;
3036;SDS011;1528;52.550;13.408;2022-08-02T11:57:45;3.23;;;2.93;;
3036;SDS011;1528;52.550;13.408;2022-08-02T12:00:32;4.00;;;2.77;;
3036;SDS011;1528;52.550;13.408;2022-08-02T12:03:17;3.53;;;2.90;;
3036;SDS011;1528;52.550;13.408;2022-08-02T12:06:06;4.23;;;3.30;;
3036;SDS011;1528;52.550;13.408;2022-08-02T12:08:51;3.30;;;2.30;;
3036;SDS011;1528;52.550;13.408;2022-08-02T12:11:43;2.63;;;2.30;;
3036;SDS011;1528;52.550;13.408;2022-08-02T12:14:32;3.57;;;3.23;;
3036;SDS011;1528;52.550;13.408;2022-08-02T12:17:30;4.17;;;3.80;;
3036;SDS011;1528;52.550;13.408;2022-08-02T12:20:35;3.33;;;3.10;;
3036;SDS011;1528;52.550;13.408;2022-08-02T12:23:23;5.23;;;4.43;;
3036;SDS011;1528;52.550;13.408;2022-08-02T12:26:13;3.93;;;3.73;;
3036;SDS011;1528;52.550;13.408;2022-08-02T12:29:02;4.87;;;4.50;;
3036;SDS011;1528;52.550;13.408;2022-08-02T12:31:50;5.37;;;5.07;;
3036;SDS011;1528;52.550;13.408;2022-08-02T12:34:40;6.73;;;6.33;;
3036;SDS011;1528;52.550;13.408;2022-08-02T12:37:29;5.47;;;5.10;;
3036;SDS011;1528;52.550;13.408;2022-08-02T12:40:22;6.10;;;5.60;;
3036;SDS011;1528;52.550;13.408;2022-08-02T12:43:18;5.90;;;5.60;;
3036;SDS011;1528;52.550;13.408;2022-08-02T12:46:13;5.00;;;4.70;;
3036;SDS011;1528;52.550;13.408;2022-08-02T12:49:13;5.83;;;5.53;;
3036;SDS011;1528;52.550;13.408;2022-08-02T12:55:15;4.87;;;4.57;;
3036;SDS011;1528;52.550;13.408;2022-08-02T12:58:04;5.27;;;4.77;;
3036;SDS011;1528;52.550;13.408;2022-08-02T13:00:53;5.17;;;4.87;;
3036;SDS011;1528;52.550;13.408;2022-08-02T13:03:43;5.47;;;5.17;;
3036;SDS011;1528;52.550;13.408;2022-08-02T13:06:31;9.10;;;8.40;;
3036;SDS011;1528;52.550;13.408;2022-08-02T13:09:23;6.77;;;6.30;;
3036;SDS011;1528;52.550;13.408;2022-08-02T13:12:11;5.78;;;5.47;;
3036;SDS011;1528;52.550;13.408;2022-08-02T13:14:59;5.23;;;4.90;;
3036;SDS011;1528;52.550;13.408;2022-08-02T13:17:48;5.90;;;5.57;;
3036;SDS011;1528;52.550;13.408;2022-08-02T13:20:36;9.32;;;8.75;;
3036;SDS011;1528;52.550;13.408;2022-08-02T13:23:25;7.33;;;6.87;;
3036;SDS011;1528;52.550;13.408;2022-08-02T13:26:17;4.97;;;4.67;;
3036;SDS011;1528;52.550;13.408;2022-08-02T13:29:06;4.70;;;4.40;;
3036;SDS011;1528;52.550;13.408;2022-08-02T13:31:54;4.13;;;3.83;;
3036;SDS011;1528;52.550;13.408;2022-08-02T13:34:44;3.70;;;3.50;;
3036;SDS011;1528;52.550;13.408;2022-08-02T13:37:32;4.50;;;4.20;;
3036;SDS011;1528;52.550;13.408;2022-08-02T13:40:22;4.85;;;4.55;;
3036;SDS011;1528;52.550;13.408;2022-08-02T13:43:12;4.85;;;4.45;;
3036;SDS011;1528;52.550;13.408;2022-08-02T13:46:03;5.20;;;4.90;;
3036;SDS011;1528;52.550;13.408;2022-08-02T13:48:52;5.30;;;4.97;;
3036;SDS011;1528;52.550;13.408;2022-08-02T13:51:41;4.00;;;3.73;;
3036;SDS011;1528;52.550;13.408;2022-08-02T13:54:29;3.50;;;3.20;;
3036;SDS011;1528;52.550;13.408;2022-08-02T13:57:19;4.37;;;4.07;;
3036;SDS011;1528;52.550;13.408;2022-08-02T14:00:09;3.03;;;2.93;;
3036;SDS011;1528;52.550;13.408;2022-08-02T14:02:58;4.23;;;4.03;;
3036;SDS011;1528;52.550;13.408;2022-08-02T14:05:46;4.00;;;3.70;;
3036;SDS011;1528;52.550;13.408;2022-08-02T14:08:35;3.93;;;3.63;;
3036;SDS011;1528;52.550;13.408;2022-08-02T14:11:24;3.60;;;3.00;;
3036;SDS011;1528;52.550;13.408;2022-08-02T14:14:14;4.37;;;4.07;;
3036;SDS011;1528;52.550;13.408;2022-08-02T14:17:04;4.07;;;3.77;;
3036;SDS011;1528;52.550;13.408;2022-08-02T14:19:54;4.10;;;3.80;;
3036;SDS011;1528;52.550;13.408;2022-08-02T14:22:42;4.03;;;3.73;;
3036;SDS011;1528;52.550;13.408;2022-08-02T14:25:30;4.10;;;3.70;;
3036;SDS011;1528;52.550;13.408;2022-08-02T14:28:18;4.83;;;3.00;;
3036;SDS011;1528;52.550;13.408;2022-08-02T14:31:06;4.47;;;3.17;;
3036;SDS011;1528;52.550;13.408;2022-08-02T14:33:56;3.30;;;3.00;;
3036;SDS011;1528;52.550;13.408;2022-08-02T14:36:45;4.87;;;4.53;;
3036;SDS011;1528;52.550;13.408;2022-08-02T14:39:34;4.67;;;4.37;;
3036;SDS011;1528;52.550;13.408;2022-08-02T14:42:24;5.23;;;4.53;;
3036;SDS011;1528;52.550;13.408;2022-08-02T14:45:11;5.80;;;5.30;;
3036;SDS011;1528;52.550;13.408;2022-08-02T14:48:02;4.83;;;3.43;;
3036;SDS011;1528;52.550;13.408;2022-08-02T14:50:53;2.97;;;2.57;;
3036;SDS011;1528;52.550;13.408;2022-08-02T14:53:41;3.20;;;2.80;;
3036;SDS011;1528;52.550;13.408;2022-08-02T14:56:29;3.10;;;2.73;;
3036;SDS011;1528;52.550;13.408;2022-08-02T14:59:18;2.87;;;2.67;;
3036;SDS011;1528;52.550;13.408;2022-08-02T15:02:07;3.73;;;3.43;;
3036;SDS011;1528;52.550;13.408;2022-08-02T15:04:55;3.93;;;3.70;;
3036;SDS011;1528;52.550;13.408;2022-08-02T15:07:47;4.20;;;3.47;;
3036;SDS011;1528;52.550;13.408;2022-08-02T15:10:36;4.10;;;3.70;;
3036;SDS011;1528;52.550;13.408;2022-08-02T15:13:25;4.57;;;4.17;;
3036;SDS011;1528;52.550;13.408;2022-08-02T15:16:13;3.07;;;2.63;;
3036;SDS011;1528;52.550;13.408;2022-08-02T15:19:01;3.90;;;3.40;;
3036;SDS011;1528;52.550;13.408;2022-08-02T15:21:49;3.70;;;3.40;;
3036;SDS011;1528;52.550;13.408;2022-08-02T15:24:39;3.30;;;3.10;;
3036;SDS011;1528;52.550;13.408;2022-08-02T15:27:27;3.30;;;3.00;;
3036;SDS011;1528;52.550;13.408;2022-08-02T15:30:16;3.50;;;2.40;;
3036;SDS011;1528;52.550;13.408;2022-08-02T15:33:05;3.07;;;2.50;;
3036;SDS011;1528;52.550;13.408;2022-08-02T15:35:53;3.80;;;2.67;;
3036;SDS011;1528;52.550;13.408;2022-08-02T15:38:42;3.47;;;2.80;;
3036;SDS011;1528;52.550;13.408;2022-08-02T15:41:33;4.27;;;3.43;;
3036;SDS011;1528;52.550;13.408;2022-08-02T15:44:22;3.37;;;2.67;;
3036;SDS011;1528;52.550;13.408;2022-08-02T15:47:10;3.33;;;2.63;;
3036;SDS011;1528;52.550;13.408;2022-08-02T15:49:58;5.10;;;3.03;;
3036;SDS011;1528;52.550;13.408;2022-08-02T15:52:46;4.60;;;4.00;;
3036;SDS011;1528;52.550;13.408;2022-08-02T15:55:35;4.30;;;3.77;;
3036;SDS011;1528;52.550;13.408;2022-08-02T15:58:25;3.33;;;3.03;;
3036;SDS011;1528;52.550;13.408;2022-08-02T16:01:13;3.60;;;3.30;;
3036;SDS011;1528;52.550;13.408;2022-08-02T16:04:01;3.70;;;3.40;;
3036;SDS011;1528;52.550;13.408;2022-08-02T16:06:50;3.20;;;2.90;;
3036;SDS011;1528;52.550;13.408;2022-08-02T16:09:38;3.87;;;3.20;;
3036;SDS011;1528;52.550;13.408;2022-08-02T16:12:26;2.97;;;2.77;;
3036;SDS011;1528;52.550;13.408;2022-08-02T16:15:16;3.70;;;3.40;;
3036;SDS011;1528;52.550;13.408;2022-08-02T16:18:05;3.73;;;3.40;;
3036;SDS011;1528;52.550;13.408;2022-08-02T16:20:53;3.57;;;3.07;;
3036;SDS011;1528;52.550;13.408;2022-08-02T16:23:42;3.77;;;3.17;;
3036;SDS011;1528;52.550;13.408;2022-08-02T16:26:30;3.90;;;3.00;;
3036;SDS011;1528;52.550;13.408;2022-08-02T16:29:19;3.90;;;2.83;;
3036;SDS011;1528;52.550;13.408;2022-08-02T16:32:10;3.37;;;3.03;;
3036;SDS011;1528;52.550;13.408;2022-08-02T16:34:59;5.40;;;3.10;;
3036;SDS011;1528;52.550;13.408;2022-08-02T16:37:48;3.57;;;2.77;;
3036;SDS011;1528;52.550;13.408;2022-08-02T16:40:35;4.00;;;3.07;;
3036;SDS011;1528;52.550;13.408;2022-08-02T16:43:23;3.23;;;2.93;;
3036;SDS011;1528;52.550;13.408;2022-08-02T16:46:11;3.30;;;2.60;;
3036;SDS011;1528;52.550;13.408;2022-08-02T16:49:02;3.33;;;3.07;;
3036;SDS011;1528;52.550;13.408;2022-08-02T16:51:49;3.47;;;3.17;;
3036;SDS011;1528;52.550;13.408;2022-08-02T16:54:38;3.80;;;3.50;;
3036;SDS011;1528;52.550;13.408;2022-08-02T16:57:26;3.17;;;2.97;;
3036;SDS011;1528;52.550;13.408;2022-08-02T17:00:13;3.30;;;2.83;;
3036;SDS011;1528;52.550;13.408;2022-08-02T17:03:01;3.37;;;3.07;;
3036;SDS011;1528;52.550;13.408;2022-08-02T17:05:52;4.13;;;3.20;;
3036;SDS011;1528;52.550;13.408;2022-08-02T17:08:41;4.60;;;4.20;;
3036;SDS011;1528;52.550;13.408;2022-08-02T17:11:28;4.83;;;3.60;;
3036;SDS011;1528;52.550;13.408;2022-08-02T17:14:16;6.03;;;3.03;;
3036;SDS011;1528;52.550;13.408;2022-08-02T17:17:04;3.63;;;2.60;;
3036;SDS011;1528;52.550;13.408;2022-08-02T17:19:53;3.67;;;3.37;;
3036;SDS011;1528;52.550;13.408;2022-08-02T17:22:44;5.87;;;3.73;;
3036;SDS011;1528;52.550;13.408;2022-08-02T17:25:32;4.50;;;3.40;;
3036;SDS011;1528;52.550;13.408;2022-08-02T17:28:20;3.60;;;3.30;;
3036;SDS011;1528;52.550;13.408;2022-08-02T17:31:09;3.53;;;3.23;;
3036;SDS011;1528;52.550;13.408;2022-08-02T17:33:56;6.27;;;3.27;;